Forside
METAR-TAF:

METAR-TAF

Lufthavne :

Kobe, Japan

Breddekreds: 34-37-58N, længdekreds: 135-13-26E, højde: 7 m

Aktuelle vejr

Denne rapport blev lavet for 41 minutter siden, kl. 13:00 UTC
Vind 12 kt fra nordøst
Temperatur 15°C
Fugtighed 77%
Tryk 1015 hPa
Sigt 10 km eller mere
Nogle få skyer i en højde af 2000 ft
Brudte skyer i en højde af 5000 ft
Brudte skyer i en højde af 7000 ft
let regn

METAR: RJBE 311300Z 05012KT 9999 -RA FEW020 BKN050 BKN070 15/11 Q1015

Tid: 22:41 (13:41 UTC)


TAF: fraværende

Vejrobservationer og prognoser fra mere end 4000 lufthavne (METAR og TAF).

De gule og røde prikker repræsenterer de meteorologiske stationer.

Flyt musen over at se navnet på stationen.

Så klik over at se vejr observationer og prognoser.

At skifte det kort: Klik på de grønne knapper med et sort kors for at zoome ind; på den grønne knap med en bindestreg for at zoome ud; eller på de grønne pile for tilstødende kort.


METAR-TAF: